Kiyotaki — JG5653 — position and weather

sailwx.info

Track history (hours):
 
Tides and Currents Weather Stations Pressure Air Temp Water Temp Dewpoint Dewpoint Depression Visibility Wind Speed Wind Dir Waves Ship Positions

Kiyotaki

Last reported at 2017-Oct-18 04:14 UTC. Time now 2017-Oct-18 07:48 UTC.
Position N 35°31' E 139°44'.

Length 36 m.

Type: Tug. MMSI: 431100981.

Date/timePositionNaut miles runAvg speedWind from/ knotsBaromVisibWave heightAir tempDewpointWater temp
2017-Oct-18 04:14N 35°31' E 139°44'0 0.0
2017-Oct-18 01:41N 35°31' E 139°44'0 0.0
2017-Oct-18 01:14N 35°31' E 139°44'0 0.0
2017-Oct-18 00:53N 35°31' E 139°44'0 0.0
2017-Oct-17 21:34N 35°31' E 139°44'0 0.0
2017-Oct-17 20:10N 35°31' E 139°44'0 0.0
2017-Oct-17 19:58N 35°31' E 139°44'0 0.0
2017-Oct-17 17:16N 35°31' E 139°44'0 0.0
2017-Oct-17 16:55N 35°31' E 139°44'0 0.0
2017-Oct-17 16:28N 35°31' E 139°44'0 0.0
2017-Oct-17 15:58N 35°31' E 139°44'0 0.0
2017-Oct-17 07:46N 35°31' E 139°44'0 0.0
2017-Oct-17 05:13N 35°31' E 139°44'0 0.0
2017-Oct-17 04:37N 35°31' E 139°44'0 0.0
2017-Oct-17 04:07N 35°31' E 139°44'0 0.0
2017-Oct-17 02:24N 35°31' E 139°44'3 6.5
2017-Oct-17 01:58N 35°29' E 139°42'6 7.3
2017-Oct-17 01:11N 35°24' E 139°46'410.8
2017-Oct-17 00:51N 35°21' E 139°45'310.0
2017-Oct-17 00:30N 35°17' E 139°45'5 9.4
2017-Oct-16 23:59N 35°13' E 139°47'3 5.4
2017-Oct-16 23:28N 35°10' E 139°47'1 2.1
2017-Oct-16 23:00N 35°11' E 139°47'1 2.5
2017-Oct-16 22:30N 35°12' E 139°47'510.1
2017-Oct-16 21:58N 35°17' E 139°44'613.6
2017-Oct-16 21:30N 35°23' E 139°42'911.8
2017-Oct-16 20:46N 35°30' E 139°46'2 0.4
2017-Oct-16 16:04N 35°31' E 139°44'0 0.0
2017-Oct-16 06:59N 35°31' E 139°44'0 0.0
2017-Oct-16 04:02N 35°31' E 139°44'0 0.0
2017-Oct-16 03:59N 35°31' E 139°44'0 0.0
2017-Oct-16 03:26N 35°31' E 139°44'0 0.0
2017-Oct-15 23:11N 35°31' E 139°44'0 0.0
2017-Oct-15 20:26N 35°31' E 139°44'0 0.0
2017-Oct-15 13:14N 35°31' E 139°44'0 0.0
2017-Oct-15 08:38N 35°31' E 139°44'1 0.1
2017-Oct-15 01:16N 35°30' E 139°45'3 9.8
2017-Oct-15 00:58N 35°28' E 139°42'510.4
2017-Oct-15 00:26N 35°23' E 139°41'510.6
2017-Oct-15 00:00N 35°18' E 139°43'612.3
2017-Oct-14 23:30N 35°13' E 139°45'5 8.2
2017-Oct-14 22:54N 35°18' E 139°45'511.3
2017-Oct-14 22:28N 35°22' E 139°42'2 3.3
2017-Oct-14 21:57N 35°24' E 139°42'8 0.6
2017-Oct-14 08:39N 35°31' E 139°44'0 0.0
2017-Oct-14 08:27N 35°31' E 139°44'0 0.0
2017-Oct-14 07:45N 35°31' E 139°44'0 0.0
2017-Oct-14 07:27N 35°31' E 139°44'0 0.0
2017-Oct-14 06:48N 35°31' E 139°44'0 0.0
2017-Oct-14 05:24N 35°31' E 139°44'0 0.0
2017-Oct-14 03:37N 35°31' E 139°44'5 0.2
2017-Oct-13 00:00N 35°30' E 139°50'5 1.4
2017-Oct-12 20:38N 35°31' E 139°44'0 0.0
2017-Oct-12 20:26N 35°31' E 139°44'0 0.0
2017-Oct-12 10:56N 35°31' E 139°44'0 0.0
2017-Oct-12 09:20N 35°31' E 139°44'0 0.0
2017-Oct-12 07:35N 35°31' E 139°44'0 0.0
2017-Oct-12 07:17N 35°31' E 139°44'0 0.0
2017-Oct-12 04:38N 35°31' E 139°44'0 0.0
2017-Oct-12 04:26N 35°31' E 139°44'2 0.8
2017-Oct-12 01:16N 35°30' E 139°47'710.5
2017-Oct-12 00:36N 35°24' E 139°42'310.9
2017-Oct-12 00:22N 35°24' E 139°39'2 6.2
2017-Oct-11 23:58N 35°22' E 139°41'4 0.2
2017-Oct-10 23:23N 35°18' E 139°42'1 3.7
2017-Oct-10 22:59N 35°17' E 139°41'2 3.0
2017-Oct-10 22:22N 35°18' E 139°43'0 0.2
2017-Oct-10 21:58N 35°18' E 139°43'0 0.3
2017-Oct-10 21:30N 35°18' E 139°43'1 0.1
2017-Oct-10 04:22N 35°17' E 139°41'1 2.2
2017-Oct-10 03:48N 35°18' E 139°43'0 0.2
2017-Oct-10 03:27N 35°18' E 139°43'0 0.3
2017-Oct-10 02:56N 35°18' E 139°43'0 0.7
2017-Oct-10 02:28N 35°18' E 139°43'0 0.6
2017-Oct-10 01:45N 35°18' E 139°43'0 0.6
2017-Oct-10 01:08N 35°18' E 139°43'1 5.3
2017-Oct-10 00:59N 35°18' E 139°42'1 2.8
2017-Oct-10 00:30N 35°17' E 139°41'2 2.7
2017-Oct-09 23:55N 35°18' E 139°42'0 0.5
2017-Oct-09 23:24N 35°18' E 139°43'0 0.3
2017-Oct-09 23:00N 35°18' E 139°43'0 0.3
2017-Oct-09 22:30N 35°18' E 139°43'0 0.5
2017-Oct-09 22:00N 35°18' E 139°43'0 0.5
2017-Oct-09 21:23N 35°18' E 139°43'1 0.0
2017-Oct-09 08:07N 35°18' E 139°42'0 0.6
2017-Oct-09 07:55N 35°18' E 139°42'0 0.7
2017-Oct-09 07:24N 35°18' E 139°42'1 1.3
2017-Oct-09 06:54N 35°18' E 139°42'1 0.1
2017-Oct-08 22:58N 35°18' E 139°43'0 0.3
2017-Oct-08 21:33N 35°18' E 139°43'0 1.1
2017-Oct-08 21:30N 35°18' E 139°43'0 0.3
2017-Oct-08 20:46N 35°18' E 139°43'1 0.1
2017-Oct-08 04:50N 35°18' E 139°42'  
Track history (hours):
 
Tides and Currents Weather Stations Pressure Air Temp Water Temp Dewpoint Dewpoint Depression Visibility Wind Speed Wind Dir Waves Ship Positions

Kiyotaki

Last reported at 2017-Oct-18 04:14 UTC. Time now 2017-Oct-18 07:48 UTC.
Position N 35°31' E 139°44'.

Length 36 m.

Type: Tug. MMSI: 431100981.

Date/timePositionNaut miles runAvg speedWind from/ knotsBaromVisibWave heightAir tempDewpointWater temp
2017-Oct-18 04:14N 35°31' E 139°44'0 0.0
2017-Oct-18 01:41N 35°31' E 139°44'0 0.0
2017-Oct-18 01:14N 35°31' E 139°44'0 0.0
2017-Oct-18 00:53N 35°31' E 139°44'0 0.0
2017-Oct-17 21:34N 35°31' E 139°44'0 0.0
2017-Oct-17 20:10N 35°31' E 139°44'0 0.0
2017-Oct-17 19:58N 35°31' E 139°44'0 0.0
2017-Oct-17 17:16N 35°31' E 139°44'0 0.0
2017-Oct-17 16:55N 35°31' E 139°44'0 0.0
2017-Oct-17 16:28N 35°31' E 139°44'0 0.0
2017-Oct-17 15:58N 35°31' E 139°44'0 0.0
2017-Oct-17 07:46N 35°31' E 139°44'0 0.0
2017-Oct-17 05:13N 35°31' E 139°44'0 0.0
2017-Oct-17 04:37N 35°31' E 139°44'0 0.0
2017-Oct-17 04:07N 35°31' E 139°44'0 0.0
2017-Oct-17 02:24N 35°31' E 139°44'3 6.5
2017-Oct-17 01:58N 35°29' E 139°42'6 7.3
2017-Oct-17 01:11N 35°24' E 139°46'410.8
2017-Oct-17 00:51N 35°21' E 139°45'310.0
2017-Oct-17 00:30N 35°17' E 139°45'5 9.4
2017-Oct-16 23:59N 35°13' E 139°47'3 5.4
2017-Oct-16 23:28N 35°10' E 139°47'1 2.1
2017-Oct-16 23:00N 35°11' E 139°47'1 2.5
2017-Oct-16 22:30N 35°12' E 139°47'510.1
2017-Oct-16 21:58N 35°17' E 139°44'613.6
2017-Oct-16 21:30N 35°23' E 139°42'911.8
2017-Oct-16 20:46N 35°30' E 139°46'2 0.4
2017-Oct-16 16:04N 35°31' E 139°44'0 0.0
2017-Oct-16 06:59N 35°31' E 139°44'0 0.0
2017-Oct-16 04:02N 35°31' E 139°44'0 0.0
2017-Oct-16 03:59N 35°31' E 139°44'0 0.0
2017-Oct-16 03:26N 35°31' E 139°44'0 0.0
2017-Oct-15 23:11N 35°31' E 139°44'0 0.0
2017-Oct-15 20:26N 35°31' E 139°44'0 0.0
2017-Oct-15 13:14N 35°31' E 139°44'0 0.0
2017-Oct-15 08:38N 35°31' E 139°44'1 0.1
2017-Oct-15 01:16N 35°30' E 139°45'3 9.8
2017-Oct-15 00:58N 35°28' E 139°42'510.4
2017-Oct-15 00:26N 35°23' E 139°41'510.6
2017-Oct-15 00:00N 35°18' E 139°43'612.3
2017-Oct-14 23:30N 35°13' E 139°45'5 8.2
2017-Oct-14 22:54N 35°18' E 139°45'511.3
2017-Oct-14 22:28N 35°22' E 139°42'2 3.3
2017-Oct-14 21:57N 35°24' E 139°42'8 0.6
2017-Oct-14 08:39N 35°31' E 139°44'0 0.0
2017-Oct-14 08:27N 35°31' E 139°44'0 0.0
2017-Oct-14 07:45N 35°31' E 139°44'0 0.0
2017-Oct-14 07:27N 35°31' E 139°44'0 0.0
2017-Oct-14 06:48N 35°31' E 139°44'0 0.0
2017-Oct-14 05:24N 35°31' E 139°44'0 0.0
2017-Oct-14 03:37N 35°31' E 139°44'5 0.2
2017-Oct-13 00:00N 35°30' E 139°50'5 1.4
2017-Oct-12 20:38N 35°31' E 139°44'0 0.0
2017-Oct-12 20:26N 35°31' E 139°44'0 0.0
2017-Oct-12 10:56N 35°31' E 139°44'0 0.0
2017-Oct-12 09:20N 35°31' E 139°44'0 0.0
2017-Oct-12 07:35N 35°31' E 139°44'0 0.0
2017-Oct-12 07:17N 35°31' E 139°44'0 0.0
2017-Oct-12 04:38N 35°31' E 139°44'0 0.0
2017-Oct-12 04:26N 35°31' E 139°44'2 0.8
2017-Oct-12 01:16N 35°30' E 139°47'710.5
2017-Oct-12 00:36N 35°24' E 139°42'310.9
2017-Oct-12 00:22N 35°24' E 139°39'2 6.2
2017-Oct-11 23:58N 35°22' E 139°41'4 0.2
2017-Oct-10 23:23N 35°18' E 139°42'1 3.7
2017-Oct-10 22:59N 35°17' E 139°41'2 3.0
2017-Oct-10 22:22N 35°18' E 139°43'0 0.2
2017-Oct-10 21:58N 35°18' E 139°43'0 0.3
2017-Oct-10 21:30N 35°18' E 139°43'1 0.1
2017-Oct-10 04:22N 35°17' E 139°41'1 2.2
2017-Oct-10 03:48N 35°18' E 139°43'0 0.2
2017-Oct-10 03:27N 35°18' E 139°43'0 0.3
2017-Oct-10 02:56N 35°18' E 139°43'0 0.7
2017-Oct-10 02:28N 35°18' E 139°43'0 0.6
2017-Oct-10 01:45N 35°18' E 139°43'0 0.6
2017-Oct-10 01:08N 35°18' E 139°43'1 5.3
2017-Oct-10 00:59N 35°18' E 139°42'1 2.8
2017-Oct-10 00:30N 35°17' E 139°41'2 2.7
2017-Oct-09 23:55N 35°18' E 139°42'0 0.5
2017-Oct-09 23:24N 35°18' E 139°43'0 0.3
2017-Oct-09 23:00N 35°18' E 139°43'0 0.3
2017-Oct-09 22:30N 35°18' E 139°43'0 0.5
2017-Oct-09 22:00N 35°18' E 139°43'0 0.5
2017-Oct-09 21:23N 35°18' E 139°43'1 0.0
2017-Oct-09 08:07N 35°18' E 139°42'0 0.6
2017-Oct-09 07:55N 35°18' E 139°42'0 0.7
2017-Oct-09 07:24N 35°18' E 139°42'1 1.3
2017-Oct-09 06:54N 35°18' E 139°42'1 0.1
2017-Oct-08 22:58N 35°18' E 139°43'0 0.3
2017-Oct-08 21:33N 35°18' E 139°43'0 1.1
2017-Oct-08 21:30N 35°18' E 139°43'0 0.3
2017-Oct-08 20:46N 35°18' E 139°43'1 0.1
2017-Oct-08 04:50N 35°18' E 139°42'  

Dump ship's entire track history